Terminal Aerodrome Forecast
Issued by NWS

Home | Current Version | Previous Version | Text Only | Print | Product List | Glossary Off
Versions: 1 2 3 4 5 6 7 8 9 10 11 12 13 14 15 16 17 18 19 20 21 22 23 24 25 26 27 28 29 30 31 32 33 34

000
FTUS43 KGRB 202333
TAFRHI
TAF
KRHI 202333Z 2100/2124 22009KT P6SM SCT040 BKN080
     FM210300 26003KT P6SM SCT035 BKN070
     FM210700 VRB03KT 5SM BR SCT060
      TEMPO 2107/2111 2SM BR
     FM211100 VRB03KT 2SM BR SCT060
      TEMPO 2111/2113 3/4SM BR SCT003
     FM211300 11002KT P6SM SCT060
     FM211800 20005KT P6SM SCT040 BKN100 PROB30 2118/2124 3SM -TSRA
      BKN040CB=

USA.gov is the U.S. government's official web portal to all federal, state and local government web resources and services.